Terminal Aerodrome Forecast
Issued by NWS Hastings, NE

Home | Current Version | Previous Version | Text Only | Print | Product List | Glossary On
Versions: 1 2 3 4 5 6 7 8 9 10 11 12 13 14 15 16
000
FTUS43 KGID 201734
TAFGRI
TAF
KGRI 201734Z 2018/2118 31020G28KT P6SM SCT150
     FM202300 34014G20KT P6SM FEW250
     FM210100 VRB05KT P6SM SKC
     FM211600 22014KT P6SM SKC=

USA.gov is the U.S. government's official web portal to all federal, state and local government web resources and services.